createdAt,value
2022-10-18T00:03:52.442Z,101532.11
2022-10-18T00:08:58.334Z,101534.01
2022-10-18T00:14:04.409Z,101530.38
2022-10-18T00:19:10.306Z,101522.85
2022-10-18T00:24:19.842Z,101514.58
2022-10-18T00:29:25.734Z,101500.16
2022-10-18T00:34:31.690Z,101494.66
2022-10-18T00:39:37.542Z,101493.83
2022-10-18T00:45:18.823Z,101495.79
2022-10-18T00:50:26.651Z,101495.45
2022-10-18T00:55:34.156Z,101489.84
2022-10-18T01:00:40.819Z,101482.10
2022-10-18T01:05:48.606Z,101466.52
2022-10-18T01:11:06.649Z,101461.98
2022-10-18T01:16:19.790Z,101455.86
2022-10-18T01:21:41.603Z,101447.33
2022-10-18T01:27:05.782Z,101440.04
2022-10-18T01:32:15.643Z,101435.61
2022-10-18T01:37:23.968Z,101433.35
2022-10-18T01:42:30.840Z,101432.04
2022-10-18T01:47:37.387Z,101429.64
2022-10-18T01:52:51.188Z,101434.88
2022-10-18T01:58:04.655Z,101438.09
2022-10-18T02:03:19.070Z,101433.13
2022-10-18T02:08:28.899Z,101436.80
2022-10-18T02:13:43.502Z,101441.34
2022-10-18T02:18:55.383Z,101440.99
2022-10-18T02:24:03.788Z,101437.45
2022-10-18T02:29:10.422Z,101438.12
2022-10-18T02:34:20.596Z,101435.60
2022-10-18T02:39:30.568Z,101432.05
2022-10-18T02:44:38.446Z,101432.80
2022-10-18T02:49:44.451Z,101428.38
2022-10-18T02:54:50.334Z,101427.77
2022-10-18T02:59:56.178Z,101424.72
2022-10-18T03:05:02.027Z,101422.87
2022-10-18T03:10:09.398Z,101425.47
2022-10-18T03:15:15.183Z,101427.45
2022-10-18T03:20:21.115Z,101426.85
2022-10-18T03:25:26.893Z,101428.64
2022-10-18T03:30:33.047Z,101427.46
2022-10-18T03:35:39.075Z,101418.92
2022-10-18T03:40:45.069Z,101418.24
2022-10-18T03:45:51.270Z,101419.60
2022-10-18T03:50:57.128Z,101416.86
2022-10-18T03:56:03.017Z,101422.21
2022-10-18T04:01:08.863Z,101420.10
2022-10-18T04:06:14.651Z,101427.73
2022-10-18T04:11:20.442Z,101424.27
2022-10-18T04:16:26.449Z,101422.38
2022-10-18T04:21:32.357Z,101425.60
2022-10-18T04:26:38.303Z,101420.92
2022-10-18T04:31:44.433Z,101429.42
2022-10-18T04:36:50.183Z,101434.15
2022-10-18T04:41:56.080Z,101428.77
2022-10-18T04:47:01.775Z,101430.82
2022-10-18T04:52:07.774Z,101434.48
2022-10-18T04:57:13.680Z,101437.73
2022-10-18T05:02:19.443Z,101434.60
2022-10-18T05:07:25.361Z,101438.13
2022-10-18T05:12:31.681Z,101442.22
2022-10-18T05:17:37.938Z,101449.19
2022-10-18T05:22:44.069Z,101450.14
2022-10-18T05:27:49.950Z,101456.33
2022-10-18T05:32:55.711Z,101454.99
2022-10-18T05:38:04.223Z,101456.63
2022-10-18T05:43:10.498Z,101460.97
2022-10-18T05:48:16.554Z,101468.86
2022-10-18T05:53:36.259Z,101469.96
2022-10-18T05:58:43.797Z,101470.44
2022-10-18T06:03:50.628Z,101469.59
2022-10-18T06:08:56.586Z,101472.11
2022-10-18T06:14:02.947Z,101482.84
2022-10-18T06:19:08.878Z,101480.64
2022-10-18T06:24:14.824Z,101482.67
2022-10-18T06:29:20.775Z,101481.42
2022-10-18T06:34:26.664Z,101481.42
2022-10-18T06:39:32.847Z,101487.20
2022-10-18T06:44:38.667Z,101487.11
2022-10-18T06:49:44.612Z,101488.04
2022-10-18T06:54:50.699Z,101488.03
2022-10-18T06:59:56.711Z,101487.37
2022-10-18T07:05:02.748Z,101489.84
2022-10-18T07:10:12.922Z,101487.70
2022-10-18T07:15:22.550Z,101486.89
2022-10-18T07:20:28.505Z,101490.55
2022-10-18T07:25:34.185Z,101495.73
2022-10-18T07:30:40.023Z,101500.77
2022-10-18T07:35:46.303Z,101497.77
2022-10-18T07:40:58.663Z,101486.11
2022-10-18T07:46:06.027Z,101478.75
2022-10-18T07:51:12.225Z,101481.90
2022-10-18T07:56:21.326Z,101473.58
2022-10-18T08:01:27.902Z,101467.15
2022-10-18T08:06:33.814Z,101466.94
2022-10-18T08:11:40.271Z,101468.00
2022-10-18T08:16:46.083Z,101465.09
2022-10-18T08:21:51.843Z,101458.14
2022-10-18T08:26:57.514Z,101456.64
2022-10-18T08:32:03.447Z,101449.89
2022-10-18T08:37:09.358Z,101437.41
2022-10-18T08:42:50.118Z,101433.92
2022-10-18T08:47:57.875Z,101436.95
2022-10-18T08:53:14.197Z,101438.59
2022-10-18T08:58:22.497Z,101435.17
2022-10-18T09:03:44.356Z,101431.55
2022-10-18T09:09:06.776Z,101434.35
2022-10-18T09:14:31.031Z,101432.84
2022-10-18T09:25:17.397Z,101430.87
2022-10-18T09:30:35.730Z,101427.98
2022-10-18T09:35:48.947Z,101420.86
2022-10-18T09:40:58.969Z,101419.58
2022-10-18T09:46:07.083Z,101414.29
2022-10-18T09:51:21.534Z,101403.11
2022-10-18T09:56:30.595Z,101395.27
2022-10-18T10:01:36.404Z,101378.27
2022-10-18T10:06:51.620Z,101367.52
2022-10-18T10:11:58.349Z,101367.32
2022-10-18T10:17:06.977Z,101359.20
2022-10-18T10:22:14.640Z,101343.05
2022-10-18T10:27:24.895Z,101336.58
2022-10-18T10:32:47.755Z,101330.20
2022-10-18T10:37:56.371Z,101325.48
2022-10-18T10:43:25.061Z,101322.84
2022-10-18T10:48:34.600Z,101317.34
2022-10-18T10:53:50.649Z,101308.48
2022-10-18T10:58:58.832Z,101302.96
2022-10-18T11:04:25.591Z,101296.73
2022-10-18T11:09:49.268Z,101287.35
2022-10-18T11:15:02.857Z,101280.07
2022-10-18T11:20:28.274Z,101276.52
2022-10-18T11:25:48.405Z,101273.50
2022-10-18T11:31:07.622Z,101268.23
2022-10-18T11:36:18.496Z,101259.48
2022-10-18T11:41:36.122Z,101251.70
2022-10-18T11:46:54.604Z,101247.27
2022-10-18T11:52:10.649Z,101236.73
2022-10-18T11:57:36.190Z,101222.79
2022-10-18T12:03:01.161Z,101219.19
2022-10-18T12:08:11.699Z,101216.73
2022-10-18T12:13:23.302Z,101213.89
2022-10-18T12:18:30.646Z,101209.86
2022-10-18T12:23:43.016Z,101205.30
2022-10-18T12:28:57.395Z,101195.14
2022-10-18T12:34:10.869Z,101180.73
2022-10-18T12:39:32.277Z,101172.63
2022-10-18T12:44:49.187Z,101167.52
2022-10-18T12:50:04.060Z,101155.73
2022-10-18T12:55:36.911Z,101150.02
2022-10-18T13:01:03.461Z,101149.05
2022-10-18T13:06:09.313Z,101135.34
2022-10-18T13:11:36.302Z,101129.44
2022-10-18T13:16:47.267Z,101128.70
2022-10-18T13:22:04.147Z,101118.84
2022-10-18T13:27:42.371Z,101110.45
2022-10-18T13:32:57.406Z,101107.11
2022-10-18T13:38:05.159Z,101106.45
2022-10-18T13:43:41.406Z,101101.05
2022-10-18T13:48:52.240Z,101093.23
2022-10-18T13:54:04.400Z,101084.27
2022-10-18T13:59:28.747Z,101084.91
2022-10-18T14:04:52.172Z,101076.05
2022-10-18T14:10:03.392Z,101077.23
2022-10-18T14:15:17.168Z,101073.16
2022-10-18T14:20:29.908Z,101068.61
2022-10-18T14:25:37.628Z,101060.41
2022-10-18T14:30:55.738Z,101050.76
2022-10-18T14:36:06.209Z,101041.83
2022-10-18T14:41:20.598Z,101033.65
2022-10-18T14:46:29.179Z,101029.65
2022-10-18T14:51:39.381Z,101028.64
2022-10-18T14:56:46.214Z,101031.12
2022-10-18T15:01:58.632Z,101028.98
2022-10-18T15:07:06.189Z,101021.61
2022-10-18T15:12:16.097Z,101025.78
2022-10-18T15:17:25.348Z,101022.38
2022-10-18T15:22:33.069Z,101014.05
2022-10-18T15:32:52.481Z,101022.42
2022-10-18T15:38:03.432Z,101017.44
2022-10-18T15:43:28.420Z,101007.28
2022-10-18T15:48:37.061Z,101028.09
2022-10-18T15:53:53.444Z,101070.90
2022-10-18T15:59:00.993Z,101041.48
2022-10-18T16:04:16.197Z,101061.47
2022-10-18T16:09:23.108Z,101058.31
2022-10-18T16:14:30.158Z,101077.46
2022-10-18T16:19:35.929Z,101109.71
2022-10-18T16:24:41.669Z,101124.35
2022-10-18T16:29:47.723Z,101109.22
2022-10-18T16:34:53.348Z,101100.42
2022-10-18T16:40:00.668Z,101085.55
2022-10-18T16:45:07.872Z,101080.40
2022-10-18T16:50:16.774Z,101089.23
2022-10-18T16:55:24.945Z,101088.91
2022-10-18T17:00:31.325Z,101100.59
2022-10-18T17:05:37.062Z,101123.98
2022-10-18T17:10:42.841Z,101125.39
2022-10-18T17:15:50.222Z,101120.73
2022-10-18T17:20:56.579Z,101122.48
2022-10-18T17:26:26.642Z,101136.50
2022-10-18T17:31:29.461Z,101128.55
2022-10-18T17:36:35.338Z,101133.22
2022-10-18T17:41:41.001Z,101143.63
2022-10-18T17:46:46.862Z,101154.09
2022-10-18T17:51:52.590Z,101154.20
2022-10-18T17:56:58.216Z,101147.02
2022-10-18T18:02:04.016Z,101151.59
2022-10-18T18:07:09.779Z,101167.69
2022-10-18T18:12:15.449Z,101165.89
2022-10-18T18:17:28.715Z,101154.02
2022-10-18T18:22:42.756Z,101140.27
2022-10-18T18:27:49.015Z,101119.23
2022-10-18T18:32:54.924Z,101103.20
2022-10-18T18:38:00.956Z,101103.22
2022-10-18T18:43:22.808Z,101117.69
2022-10-18T18:48:31.487Z,101129.37
2022-10-18T18:53:39.177Z,101136.05
2022-10-18T18:58:45.855Z,101147.14
2022-10-18T19:03:53.406Z,101162.56
2022-10-18T19:09:03.055Z,101161.40
2022-10-18T19:14:09.528Z,101159.84
2022-10-18T19:19:17.133Z,101163.31
2022-10-18T19:24:24.326Z,101168.28
2022-10-18T19:29:31.488Z,101165.81
2022-10-18T19:34:37.289Z,101150.50
2022-10-18T19:39:43.232Z,101156.67
2022-10-18T19:44:49.175Z,101160.04
2022-10-18T19:49:55.514Z,101162.59
2022-10-18T19:55:01.284Z,101157.11
2022-10-18T20:00:11.319Z,101147.02
2022-10-18T20:05:17.862Z,101148.77
2022-10-18T20:10:23.693Z,101146.61
2022-10-18T20:15:29.469Z,101144.63
2022-10-18T20:20:37.474Z,101135.40
2022-10-18T20:25:43.521Z,101133.44
2022-10-18T20:30:49.349Z,101126.06
2022-10-18T20:35:55.111Z,101126.22
2022-10-18T20:41:06.450Z,101127.52
2022-10-18T20:46:10.986Z,101126.88
2022-10-18T20:51:17.562Z,101133.63
2022-10-18T20:56:26.511Z,101136.86
2022-10-18T21:01:34.076Z,101136.10
2022-10-18T21:06:41.685Z,101133.50
2022-10-18T21:11:49.734Z,101132.11
2022-10-18T21:16:55.644Z,101126.81
2022-10-18T21:22:01.640Z,101127.39
2022-10-18T21:27:07.459Z,101123.67
2022-10-18T21:32:13.155Z,101120.20
2022-10-18T21:37:18.964Z,101120.09
2022-10-18T21:42:24.834Z,101120.41
2022-10-18T21:47:30.607Z,101120.52
2022-10-18T21:52:36.419Z,101127.14
2022-10-18T21:57:42.288Z,101125.11
2022-10-18T22:02:48.172Z,101126.52
2022-10-18T22:07:53.921Z,101123.84
2022-10-18T22:13:00.255Z,101119.79
2022-10-18T22:18:06.202Z,101114.38
2022-10-18T22:23:12.942Z,101114.95
2022-10-18T22:28:18.730Z,101115.42
2022-10-18T22:33:24.640Z,101112.33
2022-10-18T22:38:35.051Z,101110.89
2022-10-18T22:43:41.045Z,101107.60
2022-10-18T22:48:47.304Z,101108.77
2022-10-18T22:53:53.321Z,101110.48
2022-10-18T22:59:14.057Z,101105.91
2022-10-18T23:04:19.853Z,101102.76
2022-10-18T23:09:25.791Z,101101.23
2022-10-18T23:14:31.662Z,101103.54
2022-10-18T23:19:37.439Z,101105.56
2022-10-18T23:24:44.602Z,101100.06
2022-10-18T23:29:50.371Z,101101.98
2022-10-18T23:34:56.047Z,101098.41
2022-10-18T23:40:01.982Z,101092.17
2022-10-18T23:45:10.000Z,101089.98
2022-10-18T23:50:16.079Z,101096.63
2022-10-18T23:55:21.901Z,101100.90
